Airfield :
LOGIN :

Register | Disclaimer

   EN    FR    IT 

 










Legend :    VFR   Marginal VFR   IFR   Intensive IFR   Very Intensive IFR
Visi :
Ceiling :
>= 8 km
>= 3000ft
5 to 8 km
1000 to 3000 ft
1500m to 5 km
500 to 1000 ft
800 to 1500m
200 to 500 ft
< 800m
< 200 ft
Symbols :   Thunderstorms  Fog  Heavy snow  Heavy precipitations  Wind > 20 kt
SIGMETs :     Misc.  Thunderstorms  Icing  Turbulence  Mountain Waves  Volcanic Ashes







- Airport Elevation : 1273 ft
- IATA code : LJU


LJLJ - Ljubljana

CURRENT METAR :
  • 242200Z VRB02KT 9999 VCSH FEW035TCU SCT040 BKN050 14/13 Q1018 NOSIG

EXPIRED METARs :
  • 242130Z VRB02KT 9999 VCSH FEW030 FEW050TCU SCT050 BKN070 14/13 Q1018 NOSIG
  • 242100Z 11004KT 9999 VCSH FEW030 FEW045TCU SCT050 BKN080 14/13 Q1018 NOSIG
  • 242030Z 08004KT 020V110 9999 -SHRA FEW030 FEW045TCU BKN060 15/13 Q1018 NOSIG
  • 242000Z 12005KT 9999 -SHRA FEW030 FEW045TCU BKN060 16/13 Q1018 NOSIG
  • 241930Z 14005KT 9999 FEW033 BKN046 16/12 Q1018 NOSIG

TAF TAF LJLJ
Valid from the 24 at 21:00 until the 25 at 21:00 UTC


242000Z 2421/2521 30003KT 9999 FEW033 BKN045
TEMPO 2421/2502 10003KT SHRA SCT033TCU BKN045
BECMG 2502/2505 7000 RA SCT007 BKN025 OVC050
BECMG 2509/2512 12005KT 9999 NSW BKN050
BECMG 2512/2515 SCT050
TEMPO 2512/2518 SHRA SCT030TCU BKN040
BECMG 2518/2520 30003KT
No reported NOTAMs for that airfield.



MET'MAP, your aeronautical weather chart ! - Copyright ORBIFLY December 2007 - Disclaimer

ORBIFLY MET'MAP TEAM :

Programming & Development : Alexandra Zaïnal
Concept & Development : Baudouin d'Aumeries
Co-Development & Prog : Marc-Olivier Méhu
Technical & hardware support : Manuel Goepfert

Contact : metmap@orbifly.com




SOURCES & CREDITS :

   NOAA